Time;durP1;ratioP1;P1;durP2;ratioP2;P2;SDS_P1;SDS_P2;PMS_P1;PMS_P2;Temp;Humidity;BMP_temperature;BMP_pressure;BME280_temperature;BME280_humidity;BME280_pressure;Samples;Min_cycle;Max_cycle;Signal;HPM_P1;HPM_P2
2023/08/25 00:01:21;;;;;;;2.60;2.17;;;;;;;25.85;59.19;98371.22;6943134;28;20195;-83
2023/08/25 00:04:43;;;;;;;3.27;2.47;;;;;;;25.84;58.74;98380.66;6948055;28;20708;-83
2023/08/25 00:08:05;;;;;;;2.47;2.23;;;;;;;25.78;58.39;98376.38;6947310;28;20227;-83
2023/08/25 00:11:27;;;;;;;3.07;2.17;;;;;;;25.67;57.32;98350.13;6948293;28;20249;-83
2023/08/25 00:14:49;;;;;;;2.40;2.20;;;;;;;25.69;57.12;98372.72;6947768;28;20312;-83
2023/08/25 00:18:12;;;;;;;2.00;1.87;;;;;;;25.55;57.22;98349.88;6946220;28;20245;-84
2023/08/25 00:21:34;;;;;;;2.50;2.13;;;;;;;25.74;56.90;98372.59;6947891;28;20528;-83
2023/08/25 00:24:56;;;;;;;2.67;2.20;;;;;;;25.90;55.15;98336.03;6947755;28;20217;-83
2023/08/25 00:28:17;;;;;;;2.50;2.30;;;;;;;26.33;54.17;98375.81;6947481;28;20369;-82
2023/08/25 00:31:40;;;;;;;2.70;2.23;;;;;;;26.11;55.05;98381.34;6947886;28;20298;-85
2023/08/25 00:35:02;;;;;;;3.10;2.33;;;;;;;26.37;54.20;98374.00;6948555;28;20340;-83
2023/08/25 00:38:28;;;;;;;3.93;2.43;;;;;;;26.87;52.40;98358.81;6947008;28;20210;-83
2023/08/25 00:41:49;;;;;;;2.30;2.10;;;;;;;26.19;52.22;98258.97;6947410;28;20207;-83
2023/08/25 00:45:11;;;;;;;3.83;2.60;;;;;;;27.32;50.93;98351.91;6947074;28;20445;-83
2023/08/25 00:48:34;;;;;;;2.40;2.20;;;;;;;27.41;50.45;98355.53;6946656;28;20381;-83
2023/08/25 00:51:56;;;;;;;2.63;2.43;;;;;;;27.21;51.64;98358.94;6947285;28;20204;-83
2023/08/25 00:55:17;;;;;;;4.23;2.47;;;;;;;27.48;50.38;98344.78;6947295;28;20219;-83
2023/08/25 00:58:39;;;;;;;2.63;2.30;;;;;;;27.73;49.48;98352.25;6946465;28;20233;-83
2023/08/25 01:02:00;;;;;;;4.40;2.57;;;;;;;27.77;49.68;98342.19;6947077;28;20796;-83
2023/08/25 01:05:23;;;;;;;4.90;2.50;;;;;;;27.06;51.83;98300.41;6946885;28;20735;-84
2023/08/25 01:08:46;;;;;;;4.17;2.20;;;;;;;27.09;51.83;98319.13;6947501;28;20227;-83
2023/08/25 01:12:14;;;;;;;3.23;2.60;;;;;;;27.32;51.42;98340.84;6946813;28;20260;-83
2023/08/25 01:15:41;;;;;;;2.73;2.27;;;;;;;27.36;51.40;98349.34;6944800;28;20286;-83
2023/08/25 01:19:05;;;;;;;2.83;2.50;;;;;;;27.38;52.03;98349.81;6947966;28;20211;-83
2023/08/25 01:22:34;;;;;;;3.50;2.33;;;;;;;27.30;51.25;98362.50;6947622;28;20714;-83
2023/08/25 01:25:58;;;;;;;5.33;2.37;;;;;;;27.30;51.25;98334.03;6947045;28;20209;-83
2023/08/25 01:29:20;;;;;;;3.20;2.40;;;;;;;27.04;52.71;98355.25;6947193;28;20229;-83
2023/08/25 01:32:41;;;;;;;3.70;2.20;;;;;;;26.89;53.32;98347.44;6947478;28;20653;-83
2023/08/25 01:36:10;;;;;;;2.63;2.30;;;;;;;27.19;52.36;98346.56;6955458;28;20334;-83
2023/08/25 01:39:32;;;;;;;2.57;2.30;;;;;;;27.01;52.22;98312.44;6973867;28;20193;-84
2023/08/25 01:42:55;;;;;;;2.60;2.40;;;;;;;27.27;52.67;98348.50;6972588;28;20749;-83
2023/08/25 01:46:18;;;;;;;4.23;2.43;;;;;;;27.15;52.87;98348.28;6972376;28;20205;-83
2023/08/25 01:49:41;;;;;;;4.70;2.67;;;;;;;27.11;53.49;98356.44;6960130;28;20314;-83
2023/08/25 01:53:02;;;;;;;2.50;2.30;;;;;;;27.01;53.45;98351.19;6945916;28;20254;-85
2023/08/25 01:56:24;;;;;;;3.50;2.50;;;;;;;26.31;53.88;98288.78;6944973;28;20214;-85
2023/08/25 01:59:47;;;;;;;3.13;2.40;;;;;;;26.59;55.07;98351.88;6945941;28;20702;-84
2023/08/25 02:03:08;;;;;;;5.07;2.30;;;;;;;26.83;54.18;98343.97;6946977;28;20314;-83
2023/08/25 02:06:30;;;;;;;2.70;2.47;;;;;;;26.68;55.08;98344.44;6946274;28;20305;-83
2023/08/25 02:09:54;;;;;;;3.70;3.07;;;;;;;26.37;56.65;98345.56;6946100;28;20287;-83
2023/08/25 02:13:16;;;;;;;2.80;2.60;;;;;;;25.96;58.03;98345.00;6945846;28;20231;-83
2023/08/25 02:16:39;;;;;;;2.90;2.50;;;;;;;25.83;57.33;98280.38;6943171;28;20621;-83
2023/08/25 02:20:00;;;;;;;4.03;2.93;;;;;;;26.04;57.76;98344.22;6944898;28;20599;-83
2023/08/25 02:23:22;;;;;;;2.87;2.67;;;;;;;26.00;57.28;98334.94;6944696;28;20301;-83
2023/08/25 02:26:43;;;;;;;5.10;2.90;;;;;;;26.00;57.75;98305.38;6943554;28;20337;-83
2023/08/25 02:30:06;;;;;;;3.60;2.90;;;;;;;26.12;57.46;98322.19;6944804;28;20266;-83
2023/08/25 02:33:29;;;;;;;3.03;2.43;;;;;;;26.18;57.33;98318.16;6944685;28;20238;-84
2023/08/25 02:36:50;;;;;;;3.37;2.53;;;;;;;25.80;57.30;98302.28;6944141;28;20210;-83
2023/08/25 02:40:13;;;;;;;3.67;2.70;;;;;;;25.74;57.97;98309.91;6944730;28;20237;-83
2023/08/25 02:43:34;;;;;;;3.33;2.60;;;;;;;25.53;57.91;98253.53;6944393;28;20317;-84
2023/08/25 02:46:56;;;;;;;3.03;2.73;;;;;;;25.29;57.65;98224.63;6943399;28;20787;-84
2023/08/25 02:50:19;;;;;;;5.03;3.20;;;;;;;25.68;57.02;98233.84;6943802;28;20349;-83
2023/08/25 02:53:40;;;;;;;3.70;2.90;;;;;;;26.42;56.15;98304.75;6943815;28;20298;-83
2023/08/25 02:57:02;;;;;;;3.00;2.80;;;;;;;26.03;56.84;98301.16;6943496;28;20291;-83
2023/08/25 03:00:24;;;;;;;4.63;2.90;;;;;;;26.19;56.68;98302.41;6944546;28;20299;-84
2023/08/25 03:03:45;;;;;;;4.63;2.53;;;;;;;26.20;56.28;98307.59;6943238;28;20219;-83
2023/08/25 03:07:08;;;;;;;4.63;2.90;;;;;;;25.70;57.51;98272.16;6943335;28;20231;-83
2023/08/25 03:10:30;;;;;;;5.87;3.03;;;;;;;26.15;56.70;98284.81;6944181;28;20407;-83
2023/08/25 03:13:51;;;;;;;4.73;2.90;;;;;;;26.30;55.95;98278.88;6943267;28;20264;-83
2023/08/25 03:17:14;;;;;;;3.80;2.87;;;;;;;26.10;56.86;98280.25;6941942;28;20298;-83
2023/08/25 03:20:35;;;;;;;5.47;2.80;;;;;;;26.19;56.64;98283.84;6943778;28;20704;-83
2023/08/25 03:23:58;;;;;;;4.43;2.47;;;;;;;26.07;56.62;98269.81;6943914;28;20332;-84
2023/08/25 03:27:20;;;;;;;3.50;3.00;;;;;;;25.87;57.71;98280.56;6943194;28;20233;-84
2023/08/25 03:30:41;;;;;;;4.70;2.93;;;;;;;25.89;58.22;98281.06;6943722;28;20344;-84
2023/08/25 03:34:03;;;;;;;3.53;2.60;;;;;;;26.01;57.66;98270.28;6943341;28;20843;-83
2023/08/25 03:37:24;;;;;;;4.03;2.93;;;;;;;25.72;58.76;98258.88;6956232;28;20211;-84
2023/08/25 03:40:47;;;;;;;3.83;3.07;;;;;;;25.63;59.07;98264.34;6969100;28;20214;-84
2023/08/25 03:44:09;;;;;;;3.43;2.77;;;;;;;25.15;59.62;98243.16;6970580;28;20235;-83
2023/08/25 03:47:30;;;;;;;3.80;2.90;;;;;;;25.23;60.01;98265.31;6969797;28;20376;-83
2023/08/25 03:50:54;;;;;;;3.10;2.80;;;;;;;25.36;60.21;98263.66;6962559;28;20263;-84
2023/08/25 03:54:15;;;;;;;4.40;2.70;;;;;;;25.65;59.42;98245.50;6970028;28;20768;-83
2023/08/25 03:57:38;;;;;;;4.47;2.70;;;;;;;25.78;58.76;98241.84;6962026;28;20246;-83
2023/08/25 04:01:03;;;;;;;4.17;3.10;;;;;;;25.69;58.89;98235.47;6968170;28;20237;-83
2023/08/25 04:04:24;;;;;;;3.70;3.40;;;;;;;25.60;58.46;98203.41;6970503;28;20226;-83
2023/08/25 04:07:46;;;;;;;4.03;2.97;;;;;;;25.60;59.21;98231.81;6969865;28;20624;-83
2023/08/25 04:11:15;;;;;;;5.87;3.07;;;;;;;25.29;59.05;98228.22;6963577;28;20288;-83
2023/08/25 04:14:38;;;;;;;3.57;3.10;;;;;;;25.13;59.92;98223.34;6970337;28;20359;-83
2023/08/25 04:18:00;;;;;;;7.43;3.80;;;;;;;24.95;60.56;98224.34;6969990;28;20268;-83
2023/08/25 04:21:21;;;;;;;5.30;3.37;;;;;;;24.99;61.04;98220.63;6970475;28;20209;-83
2023/08/25 04:24:43;;;;;;;3.57;3.07;;;;;;;25.28;59.77;98214.72;6970441;28;20323;-83
2023/08/25 04:28:05;;;;;;;4.17;3.17;;;;;;;25.19;59.56;98200.81;6970069;28;20377;-83
2023/08/25 04:31:28;;;;;;;4.63;3.03;;;;;;;25.32;59.39;98199.97;6970935;28;20286;-83
2023/08/25 04:34:50;;;;;;;4.27;3.20;;;;;;;25.06;59.68;98215.50;6970916;28;20225;-82
2023/08/25 04:38:11;;;;;;;6.50;3.83;;;;;;;24.29;62.43;98191.88;6973410;28;20290;-83
2023/08/25 04:41:33;;;;;;;5.00;4.10;;;;;;;24.26;63.79;98205.44;6968817;28;20281;-82
2023/08/25 04:44:54;;;;;;;4.80;3.40;;;;;;;24.67;62.00;98193.25;6971222;28;20778;-83
2023/08/25 04:48:17;;;;;;;4.20;3.30;;;;;;;24.76;61.83;98190.56;6971092;28;20261;-83
2023/08/25 04:51:39;;;;;;;5.77;3.63;;;;;;;25.21;60.53;98183.97;6977891;28;20287;-84
2023/08/25 04:55:00;;;;;;;5.53;3.77;;;;;;;24.96;60.79;98190.09;6973644;28;22227;-85
2023/08/25 04:58:22;;;;;;;4.43;3.90;;;;;;;25.02;61.10;98178.63;6980706;28;20204;-85
2023/08/25 05:01:49;;;;;;;4.30;3.33;;;;;;;24.80;61.40;98175.88;6971697;28;20248;-86
2023/08/25 05:05:12;;;;;;;4.83;3.60;;;;;;;25.02;61.50;98178.63;6975321;28;20225;-84
2023/08/25 05:08:34;;;;;;;10.80;3.90;;;;;;;25.21;60.60;98167.41;6970928;28;20698;-85
2023/08/25 05:11:55;;;;;;;4.23;3.50;;;;;;;25.22;60.53;98161.56;6974030;28;20287;-85
2023/08/25 05:15:17;;;;;;;4.27;3.47;;;;;;;24.68;60.20;98100.34;6976417;28;20315;-86
2023/08/25 05:18:38;;;;;;;4.27;3.30;;;;;;;25.11;59.25;98162.97;6972696;28;20238;-86
2023/08/25 05:22:01;;;;;;;12.00;3.60;;;;;;;24.96;60.01;98157.81;6971429;28;20238;-84
2023/08/25 05:25:23;;;;;;;4.37;3.10;;;;;;;25.16;59.98;98150.97;6972178;28;20309;-83
2023/08/25 05:28:45;;;;;;;4.73;3.17;;;;;;;25.39;59.18;98158.97;6970059;28;20275;-83
2023/08/25 05:32:06;;;;;;;4.93;3.10;;;;;;;25.92;57.76;98167.19;6970269;28;20404;-84
2023/08/25 05:35:28;;;;;;;5.70;2.97;;;;;;;25.85;56.88;98112.41;6963785;28;20238;-86
2023/08/25 05:38:51;;;;;;;5.43;3.47;;;;;;;26.13;56.15;98158.00;6945104;28;20628;-86
2023/08/25 05:42:12;;;;;;;3.23;2.93;;;;;;;26.33;57.08;98154.66;6958789;28;20229;-83
2023/08/25 05:45:34;;;;;;;4.23;3.03;;;;;;;26.65;56.37;98137.63;6944167;28;20302;-83
2023/08/25 05:48:56;;;;;;;3.63;2.80;;;;;;;27.33;54.66;98159.75;6965611;28;20221;-84
2023/08/25 05:52:17;;;;;;;3.37;2.80;;;;;;;27.30;54.49;98179.78;6972181;28;20281;-85
2023/08/25 05:55:41;;;;;;;4.87;3.10;;;;;;;26.48;55.73;98175.50;6972502;28;20214;-84
2023/08/25 05:59:02;;;;;;;7.53;3.33;;;;;;;26.65;57.02;98217.84;6983819;28;20793;-83
2023/08/25 06:02:24;;;;;;;5.53;3.20;;;;;;;27.31;56.12;98241.50;6959362;28;20225;-85
2023/08/25 06:05:47;;;;;;;6.10;2.97;;;;;;;27.28;55.74;98242.97;6971154;28;20290;-83
2023/08/25 06:09:09;;;;;;;3.93;2.90;;;;;;;27.75;54.89;98243.88;6971600;28;20222;-85
2023/08/25 06:12:32;;;;;;;6.93;3.10;;;;;;;27.55;54.20;98237.06;6971503;28;20237;-86
2023/08/25 06:15:53;;;;;;;3.20;2.90;;;;;;;27.32;55.89;98271.63;6970568;28;20216;-85
2023/08/25 06:19:16;;;;;;;4.93;3.10;;;;;;;26.57;54.93;98207.59;6968643;28;20698;-85
2023/08/25 06:22:37;;;;;;;7.80;3.23;;;;;;;26.82;56.57;98320.22;6950290;28;20256;-84
2023/08/25 06:25:59;;;;;;;5.17;4.10;;;;;;;27.05;55.87;98435.22;6970750;28;20274;-83
2023/08/25 06:29:22;;;;;;;6.23;3.43;;;;;;;26.26;57.88;98468.59;6969211;28;20221;-84
2023/08/25 06:32:44;;;;;;;6.17;3.50;;;;;;;26.32;57.63;98492.22;6975254;28;20230;-85
2023/08/25 06:36:05;;;;;;;7.60;3.90;;;;;;;26.54;56.84;98467.34;6971955;28;20202;-85
2023/08/25 06:39:27;;;;;;;6.13;3.90;;;;;;;26.65;56.22;98513.78;6964979;28;20277;-83
2023/08/25 06:42:48;;;;;;;5.53;3.40;;;;;;;26.59;57.43;98514.22;6969826;28;20325;-84
2023/08/25 06:46:11;;;;;;;5.17;3.40;;;;;;;26.60;57.70;98511.16;6968955;28;20195;-84
2023/08/25 06:49:33;;;;;;;8.40;3.87;;;;;;;26.75;57.24;98499.69;6969177;28;20717;-84
2023/08/25 06:52:54;;;;;;;5.67;3.20;;;;;;;26.36;57.81;98494.03;6969856;28;20324;-84
2023/08/25 06:56:18;;;;;;;5.40;3.43;;;;;;;25.90;59.23;98487.97;6977698;28;20677;-84
2023/08/25 06:59:40;;;;;;;5.03;3.70;;;;;;;25.85;58.14;98473.44;6992002;28;20191;-83
2023/08/25 07:03:03;;;;;;;5.37;3.50;;;;;;;26.33;57.58;98494.69;7003718;28;20706;-83
2023/08/25 07:06:25;;;;;;;5.03;3.93;;;;;;;26.08;57.30;98470.41;6982423;28;20213;-83
2023/08/25 07:09:49;;;;;;;8.27;3.97;;;;;;;26.32;57.61;98493.00;6969178;28;20218;-84
2023/08/25 07:13:10;;;;;;;6.20;4.20;;;;;;;26.19;58.04;98459.94;6963772;28;20276;-83
2023/08/25 07:16:32;;;;;;;5.80;3.63;;;;;;;26.56;57.40;98470.63;6962475;28;20273;-83
2023/08/25 07:19:55;;;;;;;7.97;3.77;;;;;;;25.98;58.78;98444.97;6955111;28;20297;-83
2023/08/25 07:23:17;;;;;;;5.43;3.97;;;;;;;26.40;58.72;98475.69;6968597;28;20241;-83
2023/08/25 07:26:38;;;;;;;8.23;4.20;;;;;;;26.65;57.76;98485.31;6973205;28;20236;-83
2023/08/25 07:30:00;;;;;;;5.80;3.80;;;;;;;26.59;58.48;98519.75;6971825;28;20373;-83
2023/08/25 07:33:21;;;;;;;4.43;4.00;;;;;;;26.39;59.33;98547.88;6968670;28;20321;-83
2023/08/25 07:36:44;;;;;;;4.67;4.17;;;;;;;26.56;59.34;98567.41;6967975;28;20253;-83
2023/08/25 07:40:07;;;;;;;10.50;5.30;;;;;;;26.51;60.49;98545.38;6968959;28;20194;-84
2023/08/25 07:43:29;;;;;;;8.67;6.13;;;;;;;26.37;60.99;98548.19;6968475;28;20234;-84
2023/08/25 07:46:50;;;;;;;7.30;5.27;;;;;;;26.51;61.14;98570.25;6968013;28;20293;-84
2023/08/25 07:50:12;;;;;;;7.80;4.47;;;;;;;26.63;59.80;98570.53;6968172;28;20314;-84
2023/08/25 07:53:35;;;;;;;7.70;4.40;;;;;;;26.53;60.47;98613.06;6969897;28;20248;-82
2023/08/25 07:56:56;;;;;;;7.60;5.30;;;;;;;26.41;60.33;98587.09;6970012;28;20259;-85
2023/08/25 08:00:19;;;;;;;5.00;4.33;;;;;;;26.31;60.97;98643.44;6970292;28;20213;-85
2023/08/25 08:03:40;;;;;;;4.70;4.27;;;;;;;26.02;61.97;98633.88;6971008;28;20319;-84
2023/08/25 08:07:02;;;;;;;5.23;3.90;;;;;;;25.87;62.23;98589.94;6969208;28;20206;-80
2023/08/25 08:10:25;;;;;;;11.37;6.87;;;;;;;26.01;60.50;98590.81;6970771;28;20252;-81
2023/08/25 08:13:47;;;;;;;14.57;9.37;;;;;;;26.08;60.67;98630.69;6971300;28;20225;-81
2023/08/25 08:17:08;;;;;;;20.67;8.97;;;;;;;26.12;60.71;98623.41;6970381;28;20237;-82
2023/08/25 08:20:30;;;;;;;15.63;6.03;;;;;;;26.06;60.67;98643.16;6970681;28;20481;-82
2023/08/25 08:23:51;;;;;;;10.17;4.63;;;;;;;26.20;60.01;98644.78;6974200;28;20307;-83
2023/08/25 08:27:15;;;;;;;4.40;3.67;;;;;;;25.94;60.80;98613.31;6975972;28;20240;-84
2023/08/25 08:30:37;;;;;;;9.67;5.10;;;;;;;25.98;61.39;98619.03;6976571;28;20253;-81
2023/08/25 08:33:58;;;;;;;10.50;4.87;;;;;;;26.05;60.42;98620.25;6976135;28;20253;-83
2023/08/25 08:37:20;;;;;;;7.00;4.77;;;;;;;25.77;61.24;98621.38;6979772;28;20304;-82
2023/08/25 08:40:41;;;;;;;4.53;3.40;;;;;;;25.77;61.41;98620.56;6977722;28;20259;-82
2023/08/25 08:44:06;;;;;;;8.30;3.93;;;;;;;25.39;62.23;98584.06;6975171;28;20319;-85
2023/08/25 08:47:28;;;;;;;5.83;3.40;;;;;;;24.47;64.76;98496.88;6973418;28;20377;-84
2023/08/25 08:50:50;;;;;;;4.57;3.53;;;;;;;24.70;63.65;98467.53;6973191;28;20595;-85
2023/08/25 08:54:12;;;;;;;3.80;3.10;;;;;;;25.46;61.27;98431.78;6972874;28;20709;-83
2023/08/25 08:57:33;;;;;;;4.53;3.30;;;;;;;25.76;60.29;98431.91;6973569;28;20294;-81
2023/08/25 09:00:57;;;;;;;4.63;2.97;;;;;;;25.37;60.00;98376.50;6973258;28;20207;-83
2023/08/25 09:04:20;;;;;;;3.87;3.47;;;;;;;25.89;60.00;98410.91;6973326;28;20225;-82
2023/08/25 09:07:43;;;;;;;4.00;3.20;;;;;;;26.00;59.70;98357.88;6972739;28;20213;-82
2023/08/25 09:11:05;;;;;;;5.33;3.30;;;;;;;26.44;59.59;98352.28;6974493;28;20299;-83
2023/08/25 09:14:29;;;;;;;3.77;3.40;;;;;;;26.56;59.60;98391.25;6978811;28;20236;-82
2023/08/25 09:18:00;;;;;;;4.70;3.30;;;;;;;26.25;61.58;98444.84;6978068;28;20211;-82
2023/08/25 09:21:22;;;;;;;3.40;3.10;;;;;;;25.81;62.47;98428.22;6955417;28;20211;-83
2023/08/25 09:24:44;;;;;;;6.00;3.50;;;;;;;25.75;61.78;98377.81;6967836;28;20225;-83
2023/08/25 09:28:06;;;;;;;3.47;2.93;;;;;;;26.08;61.49;98387.50;6978429;28;20197;-82
2023/08/25 09:31:28;;;;;;;3.40;3.10;;;;;;;25.88;61.05;98352.06;6975176;28;20287;-84
2023/08/25 09:34:51;;;;;;;4.37;3.10;;;;;;;26.36;59.58;98372.38;6976002;28;20299;-84
2023/08/25 09:38:20;;;;;;;3.80;3.13;;;;;;;26.18;59.84;98362.38;6976642;28;20201;-87
2023/08/25 09:41:43;;;;;;;5.83;3.50;;;;;;;26.25;59.16;98368.25;6974669;28;20235;-83
2023/08/25 09:45:05;;;;;;;4.83;3.37;;;;;;;25.86;61.30;98340.53;6979636;28;20230;-82
2023/08/25 09:48:27;;;;;;;4.03;2.80;;;;;;;26.06;60.60;98333.66;6980048;28;20264;-83
2023/08/25 09:51:50;;;;;;;4.30;3.00;;;;;;;25.68;60.62;98341.53;6971248;28;20203;-83
2023/08/25 09:55:12;;;;;;;3.40;3.10;;;;;;;26.18;60.34;98323.69;6979596;28;20301;-84
2023/08/25 09:58:34;;;;;;;4.00;3.33;;;;;;;26.97;58.48;98325.31;6982184;28;20340;-83
2023/08/25 10:01:57;;;;;;;3.37;3.07;;;;;;;27.34;58.70;98319.19;6982447;28;20260;-83
2023/08/25 10:05:20;;;;;;;5.67;3.20;;;;;;;27.11;58.80;98325.97;6982895;28;20223;-83
2023/08/25 10:08:43;;;;;;;3.70;3.27;;;;;;;27.29;58.33;98313.81;6981832;28;20253;-83
2023/08/25 10:12:08;;;;;;;3.20;2.90;;;;;;;27.61;58.14;98315.28;6983615;28;20245;-82
2023/08/25 10:15:32;;;;;;;4.60;2.90;;;;;;;27.80;57.08;98316.63;6983302;28;20227;-83
2023/08/25 10:18:56;;;;;;;3.77;2.90;;;;;;;28.01;56.40;98322.28;6982934;28;20202;-83
2023/08/25 10:22:18;;;;;;;7.27;3.57;;;;;;;28.25;54.68;98339.97;6979986;28;20208;-83
2023/08/25 10:25:41;;;;;;;4.70;2.80;;;;;;;28.25;54.86;98353.03;6974568;28;20582;-83
2023/08/25 10:29:03;;;;;;;2.90;2.70;;;;;;;28.10;53.73;98337.75;6978904;28;20233;-83
2023/08/25 10:32:24;;;;;;;3.53;2.90;;;;;;;28.14;53.13;98344.25;6977257;28;20267;-83
2023/08/25 10:35:47;;;;;;;3.03;2.73;;;;;;;27.60;55.20;98336.63;6976602;28;20308;-84
2023/08/25 10:39:10;;;;;;;3.50;2.80;;;;;;;27.41;56.10;98329.78;6977056;28;20212;-84
2023/08/25 10:42:35;;;;;;;3.90;3.03;;;;;;;27.29;56.26;98348.97;6977139;28;20609;-83
2023/08/25 10:45:56;;;;;;;3.57;3.00;;;;;;;27.18;57.12;98350.47;6975114;28;20222;-84
2023/08/25 10:49:19;;;;;;;3.73;2.77;;;;;;;27.23;56.88;98375.19;6975646;28;20223;-84
2023/08/25 10:52:42;;;;;;;3.30;2.70;;;;;;;27.29;56.82;98371.13;6975404;28;20432;-84
2023/08/25 10:56:22;;;;;;;6.37;2.97;;;;;;;27.61;56.18;98371.50;6972494;28;20225;-84
2023/08/25 10:59:49;;;;;;;4.43;2.83;;;;;;;27.93;53.70;98382.13;6975057;28;20202;-84
2023/08/25 11:03:10;;;;;;;3.83;3.00;;;;;;;28.24;53.42;98377.16;6975458;28;20713;-83
2023/08/25 11:06:42;;;;;;;3.57;2.63;;;;;;;27.81;51.54;98368.13;6974529;28;20221;-84
2023/08/25 11:10:12;;;;;;;2.83;2.57;;;;;;;28.17;50.44;98353.84;6974792;28;20669;-84
2023/08/25 11:13:35;;;;;;;2.90;2.60;;;;;;;28.69;48.63;98352.56;6974630;28;20702;-83
2023/08/25 11:16:59;;;;;;;2.87;2.57;;;;;;;28.50;48.36;98350.22;6967669;28;20322;-84
2023/08/25 11:20:21;;;;;;;2.60;2.40;;;;;;;28.41;48.26;98334.72;6974397;28;20668;-84
2023/08/25 11:23:44;;;;;;;2.57;2.37;;;;;;;28.52;48.68;98345.16;6973470;28;20369;-83
2023/08/25 11:27:06;;;;;;;3.23;2.93;;;;;;;28.84;47.58;98336.16;6972602;28;20244;-84
2023/08/25 11:30:27;;;;;;;3.23;2.50;;;;;;;29.26;46.08;98321.22;6972419;28;20221;-83
2023/08/25 11:33:51;;;;;;;2.93;2.43;;;;;;;28.78;47.07;98284.00;6975131;28;20227;-84
2023/08/25 11:37:13;;;;;;;3.13;2.67;;;;;;;29.33;46.41;98326.25;6973805;28;20210;-83
2023/08/25 11:40:42;;;;;;;2.90;2.60;;;;;;;29.80;45.66;98320.19;6970847;28;20211;-84
2023/08/25 11:44:05;;;;;;;2.87;2.67;;;;;;;30.25;44.97;98340.50;6972817;28;20282;-83
2023/08/25 11:47:26;;;;;;;4.60;2.70;;;;;;;29.90;45.46;98333.63;6957603;28;20699;-84
2023/08/25 11:50:49;;;;;;;2.53;2.33;;;;;;;29.91;46.01;98321.34;6975119;28;20233;-84
2023/08/25 11:54:11;;;;;;;3.37;2.60;;;;;;;30.10;44.84;98318.94;6974413;28;20256;-84
2023/08/25 11:57:34;;;;;;;4.30;2.93;;;;;;;29.50;45.76;98315.03;6968971;28;20615;-83
2023/08/25 12:00:59;;;;;;;3.67;3.20;;;;;;;28.77;47.99;98290.69;6979954;28;20204;-83
2023/08/25 12:04:22;;;;;;;4.13;2.93;;;;;;;28.87;48.95;98323.59;6980530;28;20229;-83
2023/08/25 12:07:45;;;;;;;4.07;2.83;;;;;;;28.69;48.81;98283.22;6980331;28;20214;-84
2023/08/25 12:11:07;;;;;;;4.77;2.70;;;;;;;29.45;48.48;98318.00;6980028;28;20305;-85
2023/08/25 12:14:30;;;;;;;5.73;3.40;;;;;;;29.91;46.22;98307.47;6979718;28;20254;-83
2023/08/25 12:17:52;;;;;;;4.63;3.20;;;;;;;30.33;46.40;98291.50;6975101;28;20256;-84
2023/08/25 12:21:13;;;;;;;4.63;3.10;;;;;;;30.09;46.31;98281.16;6976999;28;20349;-84
2023/08/25 12:24:36;;;;;;;4.00;3.30;;;;;;;29.61;47.24;98283.72;6977637;28;20250;-84
2023/08/25 12:27:59;;;;;;;3.30;3.00;;;;;;;29.58;46.70;98272.47;6977928;28;20239;-85
2023/08/25 12:31:20;;;;;;;3.20;2.90;;;;;;;29.25;46.82;98266.84;6977897;28;20379;-84
2023/08/25 12:34:42;;;;;;;4.87;2.83;;;;;;;28.98;47.61;98241.59;6978038;28;20228;-84
2023/08/25 12:38:04;;;;;;;5.40;3.27;;;;;;;29.21;46.91;98242.88;6977159;28;20303;-84
2023/08/25 12:41:27;;;;;;;4.43;2.83;;;;;;;29.01;46.92;98221.50;6978845;28;20674;-84
2023/08/25 12:44:49;;;;;;;4.87;2.93;;;;;;;28.76;47.63;98192.75;6977819;28;20260;-84
2023/08/25 12:48:10;;;;;;;3.27;2.60;;;;;;;28.72;46.37;98127.16;6979127;28;20205;-84
2023/08/25 12:51:32;;;;;;;3.60;3.10;;;;;;;29.04;47.52;98168.06;6980259;28;20264;-84
2023/08/25 12:54:53;;;;;;;3.20;3.00;;;;;;;29.46;46.22;98184.31;6978751;28;20251;-83
2023/08/25 12:58:16;;;;;;;3.53;3.23;;;;;;;29.73;46.03;98191.25;6979616;28;20199;-85
2023/08/25 13:01:38;;;;;;;4.47;3.10;;;;;;;29.80;45.64;98186.75;6982823;28;20203;-84
2023/08/25 13:04:59;;;;;;;4.90;3.17;;;;;;;29.93;45.46;98165.34;6979923;28;20229;-84
2023/08/25 13:08:21;;;;;;;4.37;3.30;;;;;;;30.10;44.66;98152.06;6980979;28;20234;-83
2023/08/25 13:11:42;;;;;;;3.50;3.20;;;;;;;30.60;44.41;98158.03;6983557;28;20240;-83
2023/08/25 13:15:07;;;;;;;3.70;3.40;;;;;;;31.04;43.30;98172.94;6974371;28;20264;-84
2023/08/25 13:18:29;;;;;;;3.90;3.30;;;;;;;31.12;43.87;98177.53;6974118;28;20637;-84
2023/08/25 13:21:50;;;;;;;4.60;3.17;;;;;;;31.32;43.61;98185.72;6974551;28;20288;-84
2023/08/25 13:25:12;;;;;;;3.57;3.17;;;;;;;31.23;43.28;98184.25;6973574;28;20257;-84
2023/08/25 13:28:33;;;;;;;4.57;3.20;;;;;;;31.47;43.34;98201.69;6974674;28;20235;-84
2023/08/25 13:31:56;;;;;;;5.00;3.30;;;;;;;31.89;42.79;98224.41;6974598;28;20233;-84
2023/08/25 13:35:18;;;;;;;4.03;3.30;;;;;;;32.36;41.57;98220.50;6962684;28;20327;-84
2023/08/25 13:38:39;;;;;;;4.07;3.67;;;;;;;32.41;41.56;98225.81;6944301;28;20346;-85
2023/08/25 13:42:01;;;;;;;4.43;3.37;;;;;;;31.79;41.48;98211.78;6943987;28;20344;-84
2023/08/25 13:45:22;;;;;;;3.60;3.00;;;;;;;32.22;41.89;98220.13;6943932;28;20700;-83
2023/08/25 13:48:45;;;;;;;3.53;3.23;;;;;;;32.77;39.82;98233.09;6943886;28;20218;-85
2023/08/25 13:52:07;;;;;;;4.00;3.33;;;;;;;33.16;39.81;98234.78;6948739;28;22487;-84
2023/08/25 13:55:28;;;;;;;3.57;3.27;;;;;;;32.88;39.46;98212.59;6971130;28;20924;-85
2023/08/25 13:58:50;;;;;;;3.67;2.90;;;;;;;33.06;39.16;98236.16;6971342;28;20290;-85
2023/08/25 14:02:11;;;;;;;4.37;3.27;;;;;;;33.23;39.18;98218.97;6971520;28;20360;-85
2023/08/25 14:05:35;;;;;;;3.80;3.40;;;;;;;33.01;39.76;98230.84;6970884;28;20784;-84
2023/08/25 14:08:57;;;;;;;5.00;3.43;;;;;;;32.91;39.91;98225.81;6970700;28;20209;-85
2023/08/25 14:12:18;;;;;;;3.60;3.30;;;;;;;32.77;40.52;98235.91;6970863;28;20293;-85
2023/08/25 14:15:40;;;;;;;4.87;3.20;;;;;;;33.14;39.44;98225.97;6969668;28;20236;-85
2023/08/25 14:19:01;;;;;;;3.23;2.97;;;;;;;32.85;40.54;98243.25;6964749;28;20244;-84
2023/08/25 14:22:24;;;;;;;5.73;3.40;;;;;;;33.16;39.53;98255.16;6970068;28;20200;-85
2023/08/25 14:25:46;;;;;;;4.57;3.90;;;;;;;32.91;38.47;98225.03;6970342;28;20248;-84
2023/08/25 14:29:07;;;;;;;4.00;3.50;;;;;;;33.10;38.70;98248.25;6970427;28;20247;-84
2023/08/25 14:32:29;;;;;;;4.67;3.20;;;;;;;32.76;38.27;98246.25;6970598;28;20708;-84
2023/08/25 14:35:50;;;;;;;3.57;2.87;;;;;;;32.91;38.23;98239.00;6969718;28;20253;-84
2023/08/25 14:39:14;;;;;;;4.63;3.30;;;;;;;32.90;38.70;98221.41;6969828;28;20260;-84
2023/08/25 14:42:36;;;;;;;4.97;3.30;;;;;;;33.06;38.41;98238.13;6969635;28;20230;-85
2023/08/25 14:45:57;;;;;;;5.20;3.63;;;;;;;32.78;38.46;98252.25;6969363;28;20235;-85
2023/08/25 14:49:19;;;;;;;3.93;3.20;;;;;;;32.73;38.55;98234.97;6970224;28;20658;-86
2023/08/25 14:52:40;;;;;;;4.27;3.70;;;;;;;32.70;39.59;98242.06;6969829;28;20326;-85
2023/08/25 14:56:03;;;;;;;4.20;3.40;;;;;;;32.57;38.45;98231.38;6968965;28;20208;-85
2023/08/25 14:59:25;;;;;;;4.17;3.70;;;;;;;32.51;37.67;98210.47;6969862;28;20209;-85
2023/08/25 15:02:47;;;;;;;3.70;3.30;;;;;;;32.52;37.88;98240.84;6969597;28;20255;-83
2023/08/25 15:06:08;;;;;;;4.00;3.37;;;;;;;32.66;38.65;98232.00;6969201;28;20207;-85
2023/08/25 15:09:30;;;;;;;4.27;3.60;;;;;;;31.97;38.69;98176.00;6970006;28;20291;-85
2023/08/25 15:12:53;;;;;;;5.97;3.40;;;;;;;32.41;38.61;98216.59;6970331;28;20230;-84
2023/08/25 15:16:15;;;;;;;4.57;3.80;;;;;;;32.94;37.53;98227.91;6969485;28;20257;-84
2023/08/25 15:19:36;;;;;;;4.50;3.20;;;;;;;32.86;37.82;98226.13;6977412;28;20264;-85
2023/08/25 15:22:58;;;;;;;4.17;3.77;;;;;;;32.76;37.85;98207.16;6970629;28;20711;-85
2023/08/25 15:26:19;;;;;;;3.73;3.17;;;;;;;33.10;38.13;98219.47;6995274;28;20205;-84
2023/08/25 15:29:42;;;;;;;3.70;3.40;;;;;;;33.12;37.72;98189.19;6978745;28;20297;-85
2023/08/25 15:33:04;;;;;;;8.80;3.70;;;;;;;32.93;37.93;98148.09;6968559;28;20281;-85
2023/08/25 15:36:26;;;;;;;5.30;3.40;;;;;;;33.22;37.37;98178.25;6959735;28;20237;-83
2023/08/25 15:39:47;;;;;;;4.13;3.73;;;;;;;33.46;37.60;98161.19;6970568;28;20717;-83
2023/08/25 15:43:09;;;;;;;6.63;3.50;;;;;;;33.54;36.96;98167.75;6971970;28;20301;-82
2023/08/25 15:46:32;;;;;;;4.03;3.60;;;;;;;33.08;37.32;98136.00;6969470;28;20233;-83
2023/08/25 15:49:53;;;;;;;5.33;3.80;;;;;;;33.38;36.99;98159.41;6970283;28;20285;-83
2023/08/25 15:53:15;;;;;;;4.20;3.80;;;;;;;33.21;37.60;98154.28;6967696;28;20228;-84